createdAt,value
2022-12-23T00:05:40.299Z,14.43
2022-12-23T00:11:32.619Z,13.27
2022-12-23T00:17:24.750Z,12.15
2022-12-23T00:23:17.643Z,12.80
2022-12-23T00:29:10.006Z,11.80
2022-12-23T00:35:02.948Z,11.32
2022-12-23T00:41:13.924Z,13.33
2022-12-23T00:47:06.815Z,12.15
2022-12-23T00:52:59.714Z,12.05
2022-12-23T00:58:51.490Z,12.20
2022-12-23T01:05:02.647Z,11.07
2022-12-23T01:10:54.875Z,10.48
2022-12-23T01:16:47.222Z,10.55
2022-12-23T01:22:40.058Z,10.65
2022-12-23T01:28:33.569Z,12.63
2022-12-23T01:34:31.053Z,11.38
2022-12-23T01:40:26.997Z,10.02
2022-12-23T01:46:20.076Z,9.90
2022-12-23T01:52:14.544Z,9.97
2022-12-23T01:58:15.673Z,11.20
2022-12-23T02:04:11.714Z,10.88
2022-12-23T02:10:05.530Z,11.35
2022-12-23T02:16:18.266Z,10.65
2022-12-23T02:22:23.506Z,9.95
2022-12-23T02:28:21.552Z,9.82
2022-12-23T02:34:19.964Z,10.27
2022-12-23T02:40:47.601Z,9.88
2022-12-23T02:46:47.692Z,11.25
2022-12-23T02:52:43.916Z,10.82
2022-12-23T02:58:43.594Z,11.23
2022-12-23T03:04:35.662Z,12.75
2022-12-23T03:10:52.262Z,13.13
2022-12-23T03:17:09.140Z,12.98
2022-12-23T03:23:39.004Z,12.90
2022-12-23T03:29:53.915Z,14.20
2022-12-23T03:35:53.240Z,13.02
2022-12-23T03:41:56.671Z,13.90
2022-12-23T03:48:17.221Z,13.17
2022-12-23T03:54:17.861Z,13.75
2022-12-23T04:00:11.460Z,13.88
2022-12-23T04:06:10.815Z,14.05
2022-12-23T04:12:03.702Z,13.10
2022-12-23T04:17:57.791Z,14.05
2022-12-23T04:23:50.261Z,13.48
2022-12-23T04:29:42.946Z,15.18
2022-12-23T04:35:35.218Z,15.05
2022-12-23T04:41:27.334Z,14.15
2022-12-23T04:47:19.580Z,14.45
2022-12-23T04:53:12.393Z,13.90
2022-12-23T04:59:04.576Z,13.45
2022-12-23T05:04:58.450Z,14.02
2022-12-23T05:10:51.169Z,12.37
2022-12-23T05:16:43.611Z,13.77
2022-12-23T05:22:36.468Z,11.40
2022-12-23T05:28:28.610Z,10.20
2022-12-23T05:34:22.164Z,9.20
2022-12-23T05:40:18.490Z,8.95
2022-12-23T05:46:14.324Z,8.45
2022-12-23T05:52:06.553Z,7.70
2022-12-23T05:57:58.791Z,6.70
2022-12-23T06:03:52.682Z,7.72
2022-12-23T06:09:45.426Z,6.97
2022-12-23T06:15:37.276Z,8.38
2022-12-23T06:21:29.704Z,8.02
2022-12-23T06:27:22.621Z,8.20
2022-12-23T06:33:14.626Z,7.85
2022-12-23T06:39:06.715Z,7.50
2022-12-23T06:44:59.805Z,7.03
2022-12-23T06:50:52.926Z,7.67
2022-12-23T06:56:45.900Z,6.85
2022-12-23T07:02:39.950Z,6.30
2022-12-23T07:08:33.574Z,6.35
2022-12-23T07:14:25.920Z,5.50
2022-12-23T07:20:18.872Z,5.97
2022-12-23T07:26:11.822Z,5.03
2022-12-23T07:32:05.004Z,4.95
2022-12-23T07:37:57.864Z,4.53
2022-12-23T07:43:50.789Z,4.65
2022-12-23T07:49:42.511Z,4.30
2022-12-23T07:55:34.918Z,6.10
2022-12-23T08:01:27.813Z,3.97
2022-12-23T08:07:19.861Z,4.35
2022-12-23T08:13:11.948Z,4.45
2022-12-23T08:19:04.056Z,5.05
2022-12-23T08:24:57.023Z,4.30
2022-12-23T08:30:49.913Z,5.43
2022-12-23T08:36:43.023Z,5.43
2022-12-23T08:42:37.180Z,4.20
2022-12-23T08:48:30.174Z,4.43
2022-12-23T08:54:24.061Z,4.77
2022-12-23T09:00:17.462Z,4.55
2022-12-23T09:06:12.705Z,4.90
2022-12-23T09:12:07.572Z,4.30
2022-12-23T09:18:01.308Z,4.68
2022-12-23T09:23:54.299Z,4.72
2022-12-23T09:29:47.133Z,5.57
2022-12-23T09:35:39.261Z,4.70
2022-12-23T09:42:16.509Z,5.35
2022-12-23T09:48:16.083Z,6.00
2022-12-23T09:54:22.706Z,7.00
2022-12-23T10:00:20.180Z,7.05
2022-12-23T10:06:27.473Z,5.60
2022-12-23T10:12:40.546Z,4.82
2022-12-23T10:18:43.009Z,4.37
2022-12-23T10:24:41.695Z,4.28
2022-12-23T10:31:17.243Z,4.28
2022-12-23T10:37:00.868Z,3.88
2022-12-23T10:43:11.358Z,3.72
2022-12-23T10:49:32.287Z,3.33
2022-12-23T10:55:34.128Z,5.10
2022-12-23T11:01:29.401Z,4.70
2022-12-23T11:07:43.826Z,3.90
2022-12-23T11:13:44.444Z,3.95
2022-12-23T11:19:37.444Z,3.70
2022-12-23T11:25:36.745Z,3.40
2022-12-23T11:31:36.617Z,3.90
2022-12-23T11:37:47.561Z,3.60
2022-12-23T11:43:41.559Z,3.55
2022-12-23T11:49:34.622Z,3.83
2022-12-23T11:55:33.086Z,5.18
2022-12-23T12:01:26.201Z,4.60
2022-12-23T12:07:19.952Z,3.08
2022-12-23T12:13:24.824Z,3.70
2022-12-23T12:19:30.812Z,4.03
2022-12-23T12:25:37.921Z,3.85
2022-12-23T12:31:43.011Z,4.57
2022-12-23T12:43:35.606Z,5.50
2022-12-23T12:49:48.711Z,4.60
2022-12-23T12:55:46.981Z,4.10
2022-12-23T13:01:54.535Z,3.90
2022-12-23T13:08:14.541Z,3.83
2022-12-23T13:14:25.224Z,3.25
2022-12-23T13:20:33.070Z,3.60
2022-12-23T13:26:54.736Z,3.60
2022-12-23T13:33:22.789Z,3.83
2022-12-23T13:39:40.612Z,3.85
2022-12-23T13:45:36.646Z,3.30
2022-12-23T13:52:08.020Z,3.75
2022-12-23T13:58:16.663Z,4.20
2022-12-23T14:04:36.736Z,4.82
2022-12-23T14:10:31.741Z,4.57
2022-12-23T14:16:52.574Z,3.40
2022-12-23T14:23:10.836Z,4.15
2022-12-23T14:29:24.240Z,4.00
2022-12-23T14:35:35.493Z,6.07
2022-12-23T14:41:39.671Z,5.43
2022-12-23T14:47:40.463Z,5.25
2022-12-23T14:53:36.191Z,8.80
2022-12-23T14:59:38.181Z,8.05
2022-12-23T15:05:31.510Z,9.68
2022-12-23T15:15:34.741Z,11.27
2022-12-23T15:21:31.480Z,13.80
2022-12-23T15:27:27.904Z,9.98
2022-12-23T15:34:01.534Z,7.97
2022-12-23T15:39:42.064Z,9.93
2022-12-23T15:45:42.449Z,11.10
2022-12-23T15:52:05.731Z,11.23
2022-12-23T15:57:52.433Z,7.55
2022-12-23T16:03:58.538Z,7.90
2022-12-23T16:09:54.639Z,11.85
2022-12-23T16:15:47.783Z,13.13
2022-12-23T16:21:41.481Z,16.33
2022-12-23T16:27:39.159Z,15.00
2022-12-23T16:33:46.607Z,13.20
2022-12-23T16:39:41.532Z,16.52
2022-12-23T16:45:36.824Z,17.02
2022-12-23T16:51:34.345Z,16.13
2022-12-23T16:57:26.641Z,16.27
2022-12-23T17:03:21.367Z,14.82
2022-12-23T17:09:13.952Z,16.58
2022-12-23T17:15:09.009Z,19.03
2022-12-23T17:21:01.895Z,17.77
2022-12-23T17:26:57.035Z,18.02
2022-12-23T17:32:56.344Z,18.35
2022-12-23T17:38:49.879Z,24.50
2022-12-23T17:44:43.173Z,22.42
2022-12-23T17:50:37.931Z,25.45
2022-12-23T17:56:31.833Z,24.10
2022-12-23T18:02:25.303Z,21.48
2022-12-23T18:08:20.812Z,23.77
2022-12-23T18:14:32.041Z,24.65
2022-12-23T18:20:25.320Z,23.40
2022-12-23T18:26:17.653Z,20.07
2022-12-23T18:32:28.220Z,20.63
2022-12-23T18:38:21.879Z,21.55
2022-12-23T18:44:20.880Z,22.13
2022-12-23T18:50:13.862Z,21.88
2022-12-23T18:56:05.957Z,20.02
2022-12-23T19:01:59.585Z,17.52
2022-12-23T19:07:55.257Z,19.55
2022-12-23T19:13:49.187Z,20.73
2022-12-23T19:19:42.231Z,30.35
2022-12-23T19:25:36.493Z,38.45
2022-12-23T19:31:30.099Z,40.05
2022-12-23T19:37:22.969Z,38.17
2022-12-23T19:43:15.042Z,41.65
2022-12-23T19:49:07.171Z,40.42
2022-12-23T19:55:00.088Z,40.97
2022-12-23T20:00:53.213Z,47.07
2022-12-23T20:06:46.169Z,43.13
2022-12-23T20:12:39.597Z,40.25
2022-12-23T20:18:32.591Z,40.10
2022-12-23T20:24:25.111Z,37.67
2022-12-23T20:30:17.380Z,35.25
2022-12-23T20:36:11.798Z,35.83
2022-12-23T20:42:04.358Z,35.90
2022-12-23T20:47:57.885Z,36.58
2022-12-23T20:53:55.345Z,35.97
2022-12-23T20:59:49.150Z,35.40
2022-12-23T21:05:42.626Z,33.92
2022-12-23T21:11:38.909Z,31.83
2022-12-23T21:17:31.557Z,32.88
2022-12-23T21:23:24.187Z,30.63
2022-12-23T21:29:16.397Z,30.92
2022-12-23T21:35:10.207Z,30.23
2022-12-23T21:41:04.402Z,28.57
2022-12-23T21:46:58.443Z,26.80
2022-12-23T21:52:51.547Z,28.42
2022-12-23T21:58:44.846Z,25.93
2022-12-23T22:04:37.451Z,22.80
2022-12-23T22:10:30.629Z,21.13
2022-12-23T22:16:26.331Z,21.60
